Aeroporto :
LOGIN :

Iscrizione | Disclaimer

   EN    FR    IT 

 










Sommario :    VFR   VFR Marginale   IFR   IFR Intensivo   IFR Molto Intensivo
Visibilità : 
Base nubi : 
>= 8 km
>= 3000ft
5 / 8 km
1000 / 3000 ft
1500m / 5 km
500 / 1000 ft
800 / 1500m
200 / 500 ft
< 800m
< 200 ft
Simboli :   Temporali  Nebbia  Neve Forte  Precipitazioni Forti  Vento > 20 kt
SIGMETs :   Varie  Temporali  Ghiacco  Turbolenza  Onda orograficha  Ceneri Vulcaniche






- Altitudine del aeroporto : 147 ft
- Codice IATA : DUS


EDDL - Düsseldorf Int.

ULTIMO METAR :
  • 281350Z 25017KT 9999 -SHRA FEW010 SCT032CB 04/02 Q0996 RESHRA TEMPO SHRA

METARs OBSOLETI :
  • 281320Z 26021G34KT 220V290 6000 SHRA FEW012 BKN032CB 05/01 Q0996 BECMG NSW
  • 281250Z 24024G34KT 9999 SHRA FEW025 BKN033CB 06/01 Q0995 TEMPO NSW
  • 281220Z 24020G32KT 9999 VCSH SCT025 SCT034 06/02 Q0994 TEMPO SHRA
  • 281150Z 25017G28KT 9999 -SHRA FEW015 BKN018CB 04/02 Q0994 RESHRA TEMPO 25020G35KT SHRA
  • 281120Z 25024G36KT 9999 -SHRA FEW016 BKN022CB 05/02 Q0994 TEMPO SHRA

TAF TAF EDDL
Valido dal 28 a 12 ore il 29 a 18 ore UTC


281100Z 2812/2918 25020G30KT 9999 BKN025
PROB30
TEMPO 2812/2819 25025G40KT SHRA BKN020CB
BECMG 2817/2819 24015G25KT
BECMG 2819/2821 23012KT
PROB30
TEMPO 2904/2908 BKN012
BECMG 2909/2912 26015G25KT
PROB30
TEMPO 2910/2915 SHRA BKN020CB
BECMG 2915/2918 24010KT



MetMap, La meteo Aeronautica in un colpo d'occhio ! - Copyright ORBIFLY Dicembre 2007 - Disclaimer

ORBIFLY MET'MAP TEAM :

Programmazione e sviluppo : Alexandra Zaïnal
Concezione : Baudouin d'Aumeries
Aiuto per la programmazione : Marc-Olivier Méhu
Supporto tecnico e logistico : Manuel Goepfert
Aiuto per la traduzione : Arnaldo La Scala

Contatto : metmap@orbifly.com




FONTI E CREDITI :

   NOAA